Time;durP1;ratioP1;P1;durP2;ratioP2;P2;SDS_P1;SDS_P2;PMS_P1;PMS_P2;Temp;Humidity;BMP_temperature;BMP_pressure;BME280_temperature;BME280_humidity;BME280_pressure;Samples;Min_cycle;Max_cycle;Signal;HPM_P1;HPM_P2
2023/01/28 00:01:08;;;;;;;13.65;4.95;;;5.80;81.00;;;;;;5093753;28;20040;-77
2023/01/28 00:03:34;;;;;;;14.35;5.70;;;5.70;80.70;;;;;;5093597;28;20050;-77
2023/01/28 00:06:05;;;;;;;10.00;4.53;;;5.80;81.00;;;;;;5093545;28;20024;-77
2023/01/28 00:08:32;;;;;;;11.07;4.85;;;5.70;81.00;;;;;;5093451;28;20024;-77
2023/01/28 00:10:59;;;;;;;11.57;5.43;;;5.70;81.00;;;;;;5076137;28;20031;-77
2023/01/28 00:13:26;;;;;;;10.35;4.57;;;5.70;80.70;;;;;;5093496;28;20042;-77
2023/01/28 00:16:00;;;;;;;9.60;4.78;;;5.60;80.60;;;;;;5093451;28;20078;-77
2023/01/28 00:18:30;;;;;;;12.82;5.30;;;5.70;81.00;;;;;;5093390;28;20020;-77
2023/01/28 00:21:04;;;;;;;11.93;4.68;;;5.70;81.00;;;;;;5075659;28;20033;-77
2023/01/28 00:23:32;;;;;;;8.35;3.85;;;5.70;80.80;;;;;;5093519;28;20017;-77
2023/01/28 00:25:59;;;;;;;10.00;4.18;;;5.70;80.80;;;;;;5075518;28;20012;-77
2023/01/28 00:28:25;;;;;;;11.10;4.80;;;5.70;80.10;;;;;;5093296;28;20088;-77
2023/01/28 00:30:51;;;;;;;14.27;5.15;;;5.70;80.10;;;;;;5075518;28;20029;-77
2023/01/28 00:33:17;;;;;;;9.90;4.10;;;5.70;80.40;;;;;;5093233;28;20093;-77
2023/01/28 00:35:42;;;;;;;12.48;4.95;;;5.70;80.20;;;;;;5093247;28;20047;-77
2023/01/28 00:38:09;;;;;;;9.52;4.25;;;5.70;80.10;;;;;;5093046;28;20405;-77
2023/01/28 00:40:35;;;;;;;14.63;5.15;;;5.70;80.10;;;;;;5075297;28;20180;-77
2023/01/28 00:43:01;;;;;;;9.60;3.95;;;5.60;80.10;;;;;;5093177;28;20029;-77
2023/01/28 00:45:27;;;;;;;8.75;3.53;;;5.70;80.10;;;;;;5093162;28;20080;-77
2023/01/28 00:47:52;;;;;;;10.88;4.85;;;5.70;80.10;;;;;;5075333;28;20028;-77
2023/01/28 00:50:20;;;;;;;11.70;4.40;;;5.70;80.00;;;;;;5075481;28;20496;-77
2023/01/28 00:52:48;;;;;;;11.43;4.72;;;5.70;80.00;;;;;;5093086;28;20028;-77
2023/01/28 00:55:14;;;;;;;11.73;4.28;;;5.70;79.70;;;;;;5093052;28;20029;-77
2023/01/28 00:57:40;;;;;;;14.30;5.07;;;5.70;79.60;;;;;;5092999;28;20051;-77
2023/01/28 01:00:06;;;;;;;10.65;4.68;;;5.70;79.50;;;;;;5092935;28;20050;-77
2023/01/28 01:02:32;;;;;;;11.70;5.07;;;5.70;79.60;;;;;;5093260;28;20045;-77
2023/01/28 01:04:58;;;;;;;10.52;4.13;;;5.60;78.90;;;;;;5079239;28;20043;-77
2023/01/28 01:07:31;;;;;;;12.52;4.80;;;5.60;78.20;;;;;;5079252;28;20013;-77
2023/01/28 01:09:59;;;;;;;11.77;4.93;;;5.50;78.50;;;;;;5096809;28;20037;-77
2023/01/28 01:12:25;;;;;;;12.57;5.28;;;5.50;79.00;;;;;;5079162;28;20032;-77
2023/01/28 01:14:50;;;;;;;12.70;5.38;;;5.50;78.80;;;;;;5096784;28;20032;-77
2023/01/28 01:17:16;;;;;;;16.65;5.65;;;5.50;78.70;;;;;;5096711;28;20090;-77
2023/01/28 01:19:42;;;;;;;10.57;4.38;;;5.50;79.00;;;;;;5096558;28;20028;-77
2023/01/28 01:22:07;;;;;;;15.13;5.80;;;5.50;78.80;;;;;;5096584;28;20074;-77
2023/01/28 01:24:33;;;;;;;14.38;5.05;;;5.50;79.00;;;;;;5096699;28;20092;-77
2023/01/28 01:26:59;;;;;;;11.82;5.10;;;5.40;78.70;;;;;;5096628;28;20043;-77
2023/01/28 01:29:24;;;;;;;13.52;5.57;;;5.40;79.20;;;;;;5096370;28;20055;-77
2023/01/28 01:31:50;;;;;;;12.93;5.03;;;5.50;79.10;;;;;;5096430;28;20029;-77
2023/01/28 01:34:16;;;;;;;14.32;5.50;;;5.50;79.40;;;;;;5096381;28;20082;-77
2023/01/28 01:36:44;;;;;;;14.27;6.50;;;5.50;79.40;;;;;;5096147;28;20064;-77
2023/01/28 01:39:12;;;;;;;12.55;5.28;;;5.50;79.50;;;;;;5096218;28;20059;-77
2023/01/28 01:41:38;;;;;;;13.65;5.65;;;5.50;79.30;;;;;;5096210;28;20028;-77
2023/01/28 01:44:05;;;;;;;13.60;5.40;;;5.50;79.20;;;;;;5078582;28;20092;-77
2023/01/28 01:46:42;;;;;;;13.65;5.22;;;5.50;79.10;;;;;;5096128;28;20021;-77
2023/01/28 01:49:14;;;;;;;11.48;5.38;;;5.60;78.80;;;;;;5096132;28;20078;-77
2023/01/28 01:51:42;;;;;;;14.85;6.32;;;5.60;78.90;;;;;;5096065;28;20076;-77
2023/01/28 01:54:07;;;;;;;14.45;5.55;;;5.50;78.00;;;;;;5078320;28;20058;-77
2023/01/28 01:56:39;;;;;;;14.75;5.63;;;5.50;78.40;;;;;;5078227;28;20024;-77
2023/01/28 01:59:11;;;;;;;11.73;5.60;;;5.40;78.20;;;;;;5078170;28;20020;-77
2023/01/28 02:01:36;;;;;;;11.93;4.85;;;5.40;79.30;;;;;;5078222;28;20027;-77
2023/01/28 02:04:09;;;;;;;13.80;5.85;;;5.40;78.70;;;;;;5095592;28;20028;-77
2023/01/28 02:06:36;;;;;;;13.02;5.50;;;5.40;78.70;;;;;;5078228;28;20043;-77
2023/01/28 02:09:05;;;;;;;14.07;5.57;;;5.50;78.70;;;;;;5095689;28;20029;-77
2023/01/28 02:11:32;;;;;;;14.15;5.53;;;5.50;78.50;;;;;;5077993;28;20092;-77
2023/01/28 02:14:02;;;;;;;13.90;5.18;;;5.40;78.20;;;;;;5095214;28;20051;-77
2023/01/28 02:16:29;;;;;;;11.52;5.15;;;5.40;78.60;;;;;;5095261;28;20029;-77
2023/01/28 02:18:55;;;;;;;13.82;5.53;;;5.50;78.70;;;;;;5095481;28;20040;-77
2023/01/28 02:21:44;;;;;;;10.95;5.05;;;5.50;78.50;;;;;;5077830;28;20025;-77
2023/01/28 02:24:38;;;;;;;11.93;5.55;;;5.50;78.60;;;;;;5095509;28;20021;-77
2023/01/28 02:27:03;;;;;;;12.27;5.22;;;5.50;78.60;;;;;;5095427;28;20051;-77
2023/01/28 02:29:56;;;;;;;12.35;5.00;;;5.50;78.40;;;;;;5095384;28;20024;-77
2023/01/28 02:33:01;;;;;;;14.30;5.40;;;5.50;78.60;;;;;;5081896;28;20058;-77
2023/01/28 02:35:30;;;;;;;12.43;4.90;;;5.50;78.70;;;;;;5094386;28;20041;-77
2023/01/28 02:38:05;;;;;;;10.93;5.07;;;5.50;78.70;;;;;;5077460;28;20060;-77
2023/01/28 02:43:51;;;;;;;11.98;4.60;;;5.50;78.70;;;;;;5095317;28;20507;-77
2023/01/28 02:49:37;;;;;;;9.98;4.90;;;5.50;78.30;;;;;;5095184;28;20035;-77
2023/01/28 02:55:18;;;;;;;11.52;4.88;;;5.50;78.00;;;;;;5095017;28;20088;-77
2023/01/28 02:58:22;;;;;;;12.48;5.47;;;5.50;78.20;;;;;;5094991;28;20028;-77
2023/01/28 03:00:56;;;;;;;12.70;4.88;;;5.40;78.10;;;;;;5094682;28;20028;-77
2023/01/28 03:03:33;;;;;;;13.10;4.93;;;5.40;78.20;;;;;;5094889;28;20044;-77
2023/01/28 03:06:06;;;;;;;12.32;4.82;;;5.40;78.30;;;;;;5094644;28;20050;-77
2023/01/28 03:36:49;;;;;;;9.48;4.03;;;5.40;78.30;;;;;;5093967;28;20055;-77
2023/01/28 03:39:17;;;;;;;8.82;4.00;;;5.40;78.30;;;;;;5094120;28;20033;-77
2023/01/28 03:42:08;;;;;;;9.10;4.40;;;5.40;78.30;;;;;;5076291;28;20031;-77
2023/01/28 03:44:52;;;;;;;10.20;4.38;;;5.40;78.40;;;;;;5076152;28;20025;-77
2023/01/28 03:47:26;;;;;;;11.15;4.60;;;5.40;78.40;;;;;;5093876;28;20039;-77
2023/01/28 03:49:54;;;;;;;9.20;4.00;;;5.40;78.60;;;;;;5076083;28;20059;-77
2023/01/28 03:52:24;;;;;;;9.35;4.28;;;5.40;78.60;;;;;;5093787;28;20032;-77
2023/01/28 03:54:51;;;;;;;8.38;3.92;;;5.40;78.60;;;;;;5093781;28;20028;-77
2023/01/28 03:57:19;;;;;;;10.60;4.45;;;5.30;78.10;;;;;;5093697;28;20027;-77
2023/01/28 03:59:45;;;;;;;9.93;4.20;;;5.30;77.70;;;;;;5093633;28;20017;-77
2023/01/28 04:02:11;;;;;;;10.02;3.88;;;5.30;77.90;;;;;;5093630;28;20021;-77
2023/01/28 04:04:41;;;;;;;9.38;4.10;;;5.30;78.10;;;;;;5093569;28;20051;-77
2023/01/28 04:07:09;;;;;;;10.50;4.57;;;5.30;78.10;;;;;;5093567;28;20067;-77
2023/01/28 04:09:35;;;;;;;10.65;4.45;;;5.30;78.00;;;;;;5093476;28;20020;-77
2023/01/28 04:12:02;;;;;;;10.27;4.00;;;5.40;78.00;;;;;;5093513;28;20028;-77
2023/01/28 04:14:28;;;;;;;8.77;3.90;;;5.40;77.90;;;;;;5093472;28;20033;-77
2023/01/28 04:16:54;;;;;;;10.63;4.03;;;5.40;77.70;;;;;;5093478;28;20090;-77
2023/01/28 04:19:20;;;;;;;7.10;3.67;;;5.40;77.40;;;;;;5093342;28;20053;-77
2023/01/28 04:21:46;;;;;;;6.93;3.03;;;5.30;76.80;;;;;;5093401;28;20054;-77
2023/01/28 04:24:12;;;;;;;8.43;3.58;;;5.30;76.50;;;;;;5093350;28;20016;-77
2023/01/28 04:26:38;;;;;;;7.93;3.47;;;5.20;75.80;;;;;;5075710;28;20032;-77
2023/01/28 04:29:04;;;;;;;9.02;3.72;;;5.20;75.00;;;;;;5093302;28;20030;-77
2023/01/28 04:31:30;;;;;;;8.45;3.90;;;5.20;75.20;;;;;;5093295;28;20025;-77
2023/01/28 04:33:56;;;;;;;7.22;3.60;;;5.20;74.90;;;;;;5058919;28;20056;-77
2023/01/28 04:36:21;;;;;;;7.32;3.50;;;5.10;74.80;;;;;;5093080;28;20045;-77
2023/01/28 04:38:47;;;;;;;7.32;3.33;;;5.10;75.50;;;;;;5092706;28;20032;-77
2023/01/28 04:41:13;;;;;;;8.85;3.83;;;5.10;75.70;;;;;;5093222;28;20021;-77
2023/01/28 04:43:39;;;;;;;8.05;3.85;;;5.20;76.10;;;;;;5093156;28;20084;-77
2023/01/28 04:46:05;;;;;;;7.35;3.50;;;5.20;76.20;;;;;;5093191;28;20029;-77
2023/01/28 04:48:30;;;;;;;6.93;3.50;;;5.20;76.00;;;;;;5093089;28;20032;-77
2023/01/28 04:50:56;;;;;;;8.10;3.35;;;5.20;76.20;;;;;;5093120;28;20024;-77
2023/01/28 04:53:22;;;;;;;8.07;3.60;;;5.20;76.10;;;;;;5075447;28;20032;-77
2023/01/28 04:55:48;;;;;;;7.22;3.28;;;5.20;75.90;;;;;;5075441;28;20033;-77
2023/01/28 04:58:13;;;;;;;8.18;3.50;;;5.20;75.70;;;;;;5093001;28;20059;-77
2023/01/28 05:00:39;;;;;;;8.38;4.35;;;5.20;75.40;;;;;;5075294;28;20044;-77
2023/01/28 05:03:04;;;;;;;9.45;4.30;;;5.20;75.70;;;;;;5075263;28;20021;-77
2023/01/28 05:05:30;;;;;;;7.35;3.45;;;5.20;75.00;;;;;;5092939;28;20033;-77
2023/01/28 05:07:57;;;;;;;8.25;3.30;;;5.10;75.00;;;;;;5075197;28;20036;-77
2023/01/28 05:10:24;;;;;;;7.65;3.65;;;5.10;75.30;;;;;;5092910;28;20032;-77
2023/01/28 05:12:49;;;;;;;8.27;3.88;;;5.20;75.40;;;;;;5092753;28;20040;-77
2023/01/28 05:15:16;;;;;;;6.43;3.20;;;5.10;75.40;;;;;;5092858;28;20025;-77
2023/01/28 05:17:43;;;;;;;6.38;3.20;;;5.20;75.40;;;;;;5092862;28;20039;-77
2023/01/28 05:20:12;;;;;;;7.68;3.25;;;5.20;75.20;;;;;;5092761;28;20051;-77
2023/01/28 05:22:38;;;;;;;6.78;3.25;;;5.20;75.20;;;;;;5092952;28;20120;-77
2023/01/28 05:25:05;;;;;;;8.27;3.63;;;5.20;75.20;;;;;;5092802;28;20021;-77
2023/01/28 05:27:31;;;;;;;9.20;3.63;;;5.20;75.10;;;;;;5092659;28;20088;-77
2023/01/28 05:29:57;;;;;;;8.20;3.53;;;5.20;75.10;;;;;;5075240;28;20032;-77
2023/01/28 05:32:23;;;;;;;6.13;3.20;;;5.20;75.30;;;;;;5092749;28;20052;-77
2023/01/28 05:34:49;;;;;;;7.03;3.35;;;5.20;75.50;;;;;;5092705;28;20029;-77
2023/01/28 05:37:15;;;;;;;8.35;3.58;;;5.20;75.40;;;;;;5074981;28;20079;-77
2023/01/28 05:39:40;;;;;;;8.23;3.65;;;5.20;75.40;;;;;;5092573;28;20103;-77
2023/01/28 05:42:06;;;;;;;7.97;3.50;;;5.20;75.40;;;;;;5092755;28;20031;-77
2023/01/28 05:44:32;;;;;;;6.30;3.33;;;5.20;75.30;;;;;;5092612;28;20028;-77
2023/01/28 05:46:58;;;;;;;8.20;3.83;;;5.20;75.00;;;;;;5092591;28;20024;-77
2023/01/28 05:49:25;;;;;;;9.35;4.05;;;5.20;75.00;;;;;;5092585;28;20025;-77
2023/01/28 05:51:51;;;;;;;7.50;3.40;;;5.10;75.00;;;;;;5078689;28;20500;-77
2023/01/28 05:54:17;;;;;;;8.05;3.53;;;5.20;75.00;;;;;;5078262;28;20044;-77
2023/01/28 05:56:43;;;;;;;7.13;3.63;;;5.10;75.00;;;;;;5078256;28;20036;-77
2023/01/28 05:59:10;;;;;;;7.32;3.60;;;5.10;75.00;;;;;;5095920;28;20032;-77
2023/01/28 06:01:36;;;;;;;8.45;3.63;;;5.10;75.20;;;;;;5095925;28;20385;-77
2023/01/28 06:04:03;;;;;;;8.13;3.53;;;5.10;75.50;;;;;;5078200;28;20035;-77
2023/01/28 06:06:28;;;;;;;7.72;3.63;;;5.10;75.40;;;;;;5095877;28;20055;-77
2023/01/28 06:08:54;;;;;;;7.25;3.20;;;5.10;75.30;;;;;;5095743;28;20029;-77
2023/01/28 06:11:20;;;;;;;8.65;3.75;;;5.10;75.50;;;;;;5095749;28;20032;-77
2023/01/28 06:13:45;;;;;;;9.52;3.65;;;5.10;75.60;;;;;;5095743;28;20055;-77
2023/01/28 06:16:11;;;;;;;9.07;3.83;;;5.10;76.60;;;;;;5095822;28;20056;-77
2023/01/28 06:18:37;;;;;;;8.10;3.88;;;5.10;75.90;;;;;;5095643;28;20032;-77
2023/01/28 06:21:03;;;;;;;8.43;3.92;;;5.00;75.80;;;;;;5061104;28;20055;-77
2023/01/28 06:23:29;;;;;;;6.53;3.20;;;5.10;75.80;;;;;;5095548;28;20037;-77
2023/01/28 06:25:55;;;;;;;7.50;3.22;;;5.00;75.20;;;;;;5095617;28;20035;-77
2023/01/28 06:28:23;;;;;;;6.03;3.28;;;5.00;75.30;;;;;;5061040;28;20036;-77
2023/01/28 06:30:50;;;;;;;8.52;3.63;;;4.90;75.20;;;;;;5095395;28;20027;-77
2023/01/28 06:33:16;;;;;;;7.47;3.83;;;4.90;75.30;;;;;;5095348;28;20047;-77
2023/01/28 06:35:42;;;;;;;8.23;3.80;;;4.90;75.10;;;;;;5077690;28;20099;-77
2023/01/28 06:38:07;;;;;;;7.97;3.90;;;4.80;75.20;;;;;;5094997;28;20056;-77
2023/01/28 06:40:33;;;;;;;8.65;3.72;;;4.80;75.30;;;;;;5077505;28;20032;-77
2023/01/28 06:42:58;;;;;;;9.73;4.13;;;4.90;75.40;;;;;;5095159;28;20033;-77
2023/01/28 06:45:25;;;;;;;10.65;4.25;;;4.80;75.40;;;;;;5077334;28;20028;-77
2023/01/28 06:47:51;;;;;;;9.25;3.58;;;4.80;76.30;;;;;;5095046;28;20024;-77
2023/01/28 06:50:16;;;;;;;8.77;4.03;;;4.80;75.50;;;;;;5077415;28;20116;-77
2023/01/28 06:52:42;;;;;;;9.25;4.00;;;4.80;75.40;;;;;;5094970;28;20032;-77
2023/01/28 06:55:08;;;;;;;8.90;3.47;;;4.80;75.60;;;;;;5077297;28;20025;-77
2023/01/28 06:57:40;;;;;;;9.00;3.70;;;4.80;75.40;;;;;;5077335;28;20108;-77
2023/01/28 07:00:09;;;;;;;8.80;3.97;;;4.70;75.10;;;;;;5094665;28;20029;-77
2023/01/28 07:02:37;;;;;;;8.70;3.75;;;4.60;75.40;;;;;;5076839;28;20042;-77
2023/01/28 07:05:04;;;;;;;8.15;3.58;;;4.60;75.50;;;;;;5060316;28;20029;-77
2023/01/28 07:07:29;;;;;;;12.50;4.40;;;4.70;75.60;;;;;;5094519;28;20027;-77
2023/01/28 07:09:55;;;;;;;8.05;3.60;;;4.70;75.60;;;;;;5094528;28;20028;-77
2023/01/28 07:12:21;;;;;;;11.90;4.70;;;4.70;75.50;;;;;;5094712;28;20033;-77
2023/01/28 07:14:46;;;;;;;9.48;4.45;;;4.80;75.50;;;;;;5094611;28;20100;-77
2023/01/28 07:17:12;;;;;;;11.30;4.80;;;4.80;75.40;;;;;;5094450;28;20028;-77
2023/01/28 07:19:37;;;;;;;8.13;4.13;;;4.70;75.40;;;;;;5094345;28;20028;-77
2023/01/28 07:22:03;;;;;;;10.63;4.88;;;4.70;75.30;;;;;;5076748;28;20064;-77
2023/01/28 07:24:29;;;;;;;9.70;4.10;;;4.70;74.80;;;;;;5076715;28;20023;-77
2023/01/28 07:26:55;;;;;;;10.35;4.70;;;4.70;75.00;;;;;;5094397;28;20025;-77
2023/01/28 07:29:21;;;;;;;11.98;4.07;;;4.70;75.10;;;;;;5094223;28;20033;-77
2023/01/28 07:31:46;;;;;;;10.48;4.40;;;4.70;74.70;;;;;;5094313;28;20032;-77
2023/01/28 07:34:12;;;;;;;9.95;4.10;;;4.60;74.50;;;;;;5076525;28;20055;-77
2023/01/28 07:36:37;;;;;;;8.73;4.10;;;4.60;73.60;;;;;;5093895;28;20059;-77
2023/01/28 07:39:03;;;;;;;9.70;4.43;;;4.60;74.00;;;;;;5076262;28;20037;-77
2023/01/28 07:41:29;;;;;;;8.55;4.20;;;4.60;74.60;;;;;;5076459;28;20089;-77
2023/01/28 07:43:55;;;;;;;10.50;4.95;;;4.60;74.70;;;;;;5093947;28;20028;-77
2023/01/28 07:46:21;;;;;;;10.75;4.90;;;4.60;74.50;;;;;;5076123;28;20035;-77
2023/01/28 07:48:46;;;;;;;10.75;4.40;;;4.60;74.50;;;;;;5093855;28;20033;-76
2023/01/28 07:51:12;;;;;;;12.02;4.75;;;4.60;74.50;;;;;;5076109;28;20032;-77
2023/01/28 07:53:38;;;;;;;11.32;4.80;;;4.60;74.80;;;;;;5093765;28;20016;-77
2023/01/28 07:56:05;;;;;;;11.85;4.75;;;4.60;74.90;;;;;;5093745;28;20044;-77
2023/01/28 07:58:33;;;;;;;12.52;4.55;;;4.60;75.00;;;;;;5093692;28;20024;-76
2023/01/28 08:00:59;;;;;;;11.60;4.63;;;4.70;75.20;;;;;;5093582;28;20025;-77
2023/01/28 08:03:27;;;;;;;11.15;4.47;;;4.70;75.30;;;;;;5093635;28;20021;-76
2023/01/28 08:05:54;;;;;;;10.48;4.75;;;4.70;75.10;;;;;;5093594;28;20012;-77
2023/01/28 08:08:24;;;;;;;10.38;4.22;;;4.70;75.00;;;;;;5093453;28;20031;-77
2023/01/28 08:10:50;;;;;;;12.02;5.15;;;4.70;75.20;;;;;;5093516;28;20032;-76
2023/01/28 08:13:16;;;;;;;10.00;4.75;;;4.60;75.10;;;;;;5092721;28;20025;-76
2023/01/28 08:15:43;;;;;;;11.52;4.68;;;4.60;75.10;;;;;;5075726;28;20025;-77
2023/01/28 08:18:13;;;;;;;11.05;4.45;;;4.60;75.30;;;;;;5093420;28;20050;-77
2023/01/28 08:20:40;;;;;;;12.63;4.68;;;4.70;75.20;;;;;;5093503;28;20036;-77
2023/01/28 08:23:16;;;;;;;11.27;4.60;;;4.70;75.10;;;;;;5075679;28;20045;-77
2023/01/28 08:25:42;;;;;;;12.15;5.05;;;4.70;75.00;;;;;;5075615;28;20028;-77
2023/01/28 08:28:09;;;;;;;10.70;4.53;;;4.70;74.60;;;;;;5093335;28;20028;-77
2023/01/28 08:30:36;;;;;;;9.70;4.10;;;4.70;74.50;;;;;;5093316;28;20048;-77
2023/01/28 08:33:03;;;;;;;12.65;4.82;;;4.80;74.70;;;;;;5093327;28;20023;-77
2023/01/28 08:35:29;;;;;;;10.85;4.53;;;4.80;74.60;;;;;;5075508;28;20025;-77
2023/01/28 08:37:54;;;;;;;11.32;4.63;;;4.80;74.60;;;;;;5093047;28;20079;-77
2023/01/28 08:40:20;;;;;;;12.43;4.93;;;4.80;74.50;;;;;;5075456;28;20031;-77
2023/01/28 08:42:48;;;;;;;10.52;4.32;;;4.80;74.60;;;;;;5093217;28;20107;-77
2023/01/28 08:45:13;;;;;;;11.43;4.75;;;4.80;74.50;;;;;;5093185;28;20095;-77
2023/01/28 08:47:57;;;;;;;12.13;4.68;;;4.80;73.90;;;;;;5075364;28;20028;-76
2023/01/28 08:50:26;;;;;;;10.40;4.72;;;4.80;74.40;;;;;;5075282;28;20054;-77
2023/01/28 08:53:00;;;;;;;11.85;4.55;;;4.80;74.60;;;;;;5075310;28;20051;-77
2023/01/28 08:55:26;;;;;;;11.25;4.80;;;4.80;74.70;;;;;;5093029;28;20451;-76
2023/01/28 08:57:53;;;;;;;11.75;4.90;;;4.80;74.60;;;;;;5093047;28;20031;-77
2023/01/28 09:00:20;;;;;;;11.45;4.80;;;4.80;74.60;;;;;;5092938;28;20029;-76
2023/01/28 09:02:46;;;;;;;11.15;5.00;;;4.80;74.40;;;;;;5075188;28;20012;-77
2023/01/28 09:05:13;;;;;;;9.23;4.70;;;4.80;74.40;;;;;;5093001;28;20039;-77
2023/01/28 09:07:39;;;;;;;11.10;4.28;;;4.90;74.60;;;;;;5092865;28;20021;-77
2023/01/28 09:10:05;;;;;;;11.65;4.72;;;4.80;74.60;;;;;;5092937;28;20025;-77
2023/01/28 09:12:32;;;;;;;10.63;4.80;;;4.80;74.50;;;;;;5075257;28;20050;-77
2023/01/28 09:14:57;;;;;;;11.88;5.18;;;4.90;74.50;;;;;;5075075;28;20032;-76
2023/01/28 09:17:23;;;;;;;10.85;4.25;;;4.80;74.60;;;;;;5092836;28;20036;-77
2023/01/28 09:19:49;;;;;;;12.38;5.18;;;4.80;75.30;;;;;;5092775;28;20549;-76
2023/01/28 09:22:15;;;;;;;11.52;5.22;;;4.80;74.50;;;;;;5092962;28;20033;-77
2023/01/28 09:24:41;;;;;;;12.40;4.80;;;4.90;74.30;;;;;;5077170;28;20024;-77
2023/01/28 09:27:07;;;;;;;10.00;4.80;;;4.90;74.20;;;;;;5096567;28;20029;-77
2023/01/28 09:29:33;;;;;;;14.15;5.32;;;4.90;74.20;;;;;;5078835;28;20032;-77
2023/01/28 09:31:59;;;;;;;13.10;4.47;;;4.90;74.10;;;;;;5096495;28;20088;-77
2023/01/28 09:34:25;;;;;;;12.05;4.57;;;4.80;73.70;;;;;;5096442;28;20039;-76
2023/01/28 09:36:50;;;;;;;11.20;4.47;;;4.80;73.90;;;;;;5096203;28;20048;-76
2023/01/28 09:39:16;;;;;;;10.60;4.40;;;4.70;73.80;;;;;;5062004;28;20408;-77
2023/01/28 09:42:02;;;;;;;11.48;4.85;;;4.70;73.90;;;;;;5078747;28;20028;-77
2023/01/28 09:44:50;;;;;;;14.32;4.80;;;4.70;74.30;;;;;;5096422;28;20029;-76
2023/01/28 09:47:25;;;;;;;10.93;4.85;;;4.70;74.10;;;;;;5096352;28;20031;-76
2023/01/28 09:49:53;;;;;;;10.02;4.72;;;4.70;73.80;;;;;;5096205;28;20024;-77
2023/01/28 09:52:22;;;;;;;10.50;4.68;;;4.80;74.00;;;;;;5096096;28;20089;-77
2023/01/28 09:54:59;;;;;;;10.93;4.95;;;4.80;73.90;;;;;;5096036;28;20028;-77
2023/01/28 09:57:36;;;;;;;12.07;4.65;;;4.80;73.70;;;;;;5078317;28;20032;-76
2023/01/28 10:00:15;;;;;;;11.15;4.85;;;4.80;73.70;;;;;;5095941;28;20028;-77
2023/01/28 10:03:04;;;;;;;10.30;5.22;;;4.80;73.70;;;;;;5095971;28;20055;-77
2023/01/28 10:05:57;;;;;;;11.30;4.93;;;4.80;73.70;;;;;;5095896;28;20031;-77
2023/01/28 10:08:41;;;;;;;11.85;4.93;;;4.80;73.70;;;;;;5095985;28;20047;-77
2023/01/28 10:11:22;;;;;;;10.15;4.55;;;4.80;73.80;;;;;;5095920;28;20055;-77
2023/01/28 10:14:24;;;;;;;12.07;4.57;;;4.80;74.10;;;;;;5095911;28;20461;-77
2023/01/28 10:17:07;;;;;;;10.43;4.60;;;4.80;74.00;;;;;;5077853;28;20051;-77
2023/01/28 10:19:50;;;;;;;9.40;4.25;;;4.80;73.70;;;;;;5095612;28;20108;-77
2023/01/28 10:22:26;;;;;;;10.20;4.47;;;4.70;73.80;;;;;;5095605;28;20103;-77
2023/01/28 10:25:05;;;;;;;13.95;4.68;;;4.70;73.50;;;;;;5095700;28;20027;-77
2023/01/28 10:27:32;;;;;;;12.40;5.13;;;4.70;73.70;;;;;;5095511;28;20040;-77
2023/01/28 10:30:17;;;;;;;11.30;4.88;;;4.70;73.80;;;;;;5078003;28;20091;-77
2023/01/28 10:33:03;;;;;;;13.13;5.25;;;4.80;74.10;;;;;;5095422;28;20095;-77
2023/01/28 10:35:33;;;;;;;10.90;5.03;;;4.70;73.50;;;;;;5094020;28;20111;-77
2023/01/28 10:38:05;;;;;;;16.20;5.45;;;4.70;73.90;;;;;;5095112;28;20049;-77
2023/01/28 10:40:31;;;;;;;8.80;4.25;;;4.70;74.20;;;;;;5095194;28;20033;-76
2023/01/28 10:42:56;;;;;;;8.98;4.15;;;4.70;74.40;;;;;;5095211;28;20032;-77
2023/01/28 10:45:45;;;;;;;13.02;6.20;;;4.70;74.50;;;;;;5095137;28;20084;-77
2023/01/28 10:48:25;;;;;;;10.98;4.28;;;4.70;74.40;;;;;;5077256;28;20092;-77
2023/01/28 10:50:58;;;;;;;11.25;5.07;;;4.70;74.40;;;;;;5095025;28;20052;-76
2023/01/28 10:53:43;;;;;;;10.40;5.05;;;4.80;74.50;;;;;;5095071;28;20032;-77
2023/01/28 10:56:14;;;;;;;9.88;4.63;;;4.80;74.60;;;;;;5095110;28;20028;-77
2023/01/28 10:59:00;;;;;;;8.88;4.30;;;4.80;74.50;;;;;;5094887;28;20044;-77
2023/01/28 11:01:39;;;;;;;10.98;4.90;;;4.80;74.60;;;;;;5094983;28;20108;-77
2023/01/28 11:04:05;;;;;;;10.00;4.13;;;4.80;74.50;;;;;;5094825;28;20020;-77
2023/01/28 11:06:31;;;;;;;10.55;4.50;;;4.80;74.60;;;;;;5077198;28;20028;-77
2023/01/28 11:08:57;;;;;;;11.55;5.47;;;4.80;74.70;;;;;;5094531;28;20032;-77
2023/01/28 11:11:27;;;;;;;10.02;4.82;;;4.80;74.70;;;;;;5094621;28;20028;-77
2023/01/28 11:13:57;;;;;;;13.43;7.70;;;4.70;74.30;;;;;;5094516;28;20033;-77
2023/01/28 11:16:23;;;;;;;13.05;5.75;;;4.80;74.80;;;;;;5094542;28;20020;-77
2023/01/28 11:18:57;;;;;;;11.55;5.03;;;4.80;74.70;;;;;;5076719;28;20024;-77
2023/01/28 11:21:29;;;;;;;9.93;3.97;;;4.80;74.60;;;;;;5076819;28;20025;-77
2023/01/28 11:23:57;;;;;;;9.93;4.30;;;4.80;74.50;;;;;;5094365;28;20460;-77
2023/01/28 11:26:31;;;;;;;9.80;4.32;;;4.80;74.60;;;;;;5094274;28;20036;-77
2023/01/28 11:28:56;;;;;;;10.15;4.47;;;4.90;74.80;;;;;;5094265;28;20105;-77
2023/01/28 11:31:23;;;;;;;12.68;4.60;;;4.80;74.30;;;;;;5076487;28;20024;-77
2023/01/28 11:34:00;;;;;;;8.38;3.72;;;4.80;74.50;;;;;;5094092;28;20070;-77
2023/01/28 11:36:28;;;;;;;8.55;4.18;;;4.90;74.50;;;;;;5093990;28;20048;-77
2023/01/28 11:39:01;;;;;;;8.25;4.50;;;4.90;73.40;;;;;;5094041;28;20029;-77
2023/01/28 11:41:31;;;;;;;8.90;4.47;;;4.80;73.90;;;;;;5094067;28;20046;-77
2023/01/28 11:44:16;;;;;;;12.88;6.50;;;4.90;74.50;;;;;;5076242;28;20017;-77
2023/01/28 11:46:42;;;;;;;10.77;4.72;;;5.00;74.60;;;;;;5094043;28;20020;-77
2023/01/28 11:49:33;;;;;;;8.98;4.32;;;5.00;74.60;;;;;;5076139;28;20129;-77
2023/01/28 11:52:25;;;;;;;8.10;3.75;;;5.00;73.50;;;;;;5038357;28;20028;-77
2023/01/28 11:55:35;;;;;;;9.73;4.10;;;4.90;73.90;;;;;;5093818;28;20031;-77
2023/01/28 11:58:13;;;;;;;8.73;4.00;;;4.90;73.70;;;;;;5016254;28;20021;-77
2023/01/28 12:00:59;;;;;;;9.73;4.40;;;4.90;74.30;;;;;;5093769;28;20111;-76
2023/01/28 12:04:04;;;;;;;9.38;3.90;;;4.90;73.80;;;;;;5093725;28;20051;-77
2023/01/28 12:06:41;;;;;;;9.40;4.40;;;4.80;73.50;;;;;;5055906;28;20048;-77
2023/01/28 12:09:13;;;;;;;9.93;4.25;;;4.70;73.30;;;;;;5093545;28;20029;-77
2023/01/28 12:14:45;;;;;;;8.65;3.90;;;4.80;74.70;;;;;;5093664;28;19976;-77
2023/01/28 12:17:30;;;;;;;9.40;3.97;;;4.90;75.10;;;;;;5093479;28;20044;-77
2023/01/28 12:20:22;;;;;;;11.88;4.95;;;4.90;73.10;;;;;;5093539;28;20059;-77
2023/01/28 12:23:00;;;;;;;13.07;5.07;;;5.00;74.20;;;;;;5080242;28;20044;-77
2023/01/28 12:25:48;;;;;;;9.93;4.43;;;5.10;74.80;;;;;;5075657;28;20047;-77
2023/01/28 12:28:39;;;;;;;9.80;4.65;;;5.40;74.70;;;;;;5093511;28;20035;-77
2023/01/28 12:31:08;;;;;;;7.90;3.80;;;5.60;72.90;;;;;;5048552;28;20044;-77
2023/01/28 12:34:04;;;;;;;10.30;4.68;;;5.60;71.70;;;;;;5093280;28;20079;-77
2023/01/28 12:36:36;;;;;;;9.30;4.43;;;5.60;71.90;;;;;;5075163;28;20048;-77
2023/01/28 12:39:09;;;;;;;11.05;4.57;;;5.70;72.70;;;;;;5075463;28;20067;-77
2023/01/28 12:41:41;;;;;;;10.05;4.60;;;5.60;70.60;;;;;;5093289;28;20024;-77
2023/01/28 12:44:31;;;;;;;11.02;4.43;;;5.80;72.20;;;;;;5075482;28;20087;-77
2023/01/28 12:47:01;;;;;;;10.80;4.63;;;5.90;72.60;;;;;;5093193;28;20035;-77
2023/01/28 12:49:53;;;;;;;9.20;4.45;;;6.00;72.50;;;;;;5093188;28;20020;-77
2023/01/28 12:52:36;;;;;;;12.93;4.88;;;6.10;72.10;;;;;;5088157;28;20063;-77
2023/01/28 12:55:19;;;;;;;9.68;4.80;;;6.10;71.70;;;;;;5093156;28;20027;-77
2023/01/28 12:57:47;;;;;;;11.77;4.65;;;6.00;71.90;;;;;;5093252;28;20027;-77
2023/01/28 13:00:50;;;;;;;8.68;4.13;;;5.90;71.30;;;;;;5096150;28;20075;-77
2023/01/28 13:03:32;;;;;;;9.75;4.60;;;5.70;70.20;;;;;;5045038;28;20103;-77
2023/01/28 13:06:07;;;;;;;11.77;3.97;;;5.50;71.30;;;;;;5079390;28;20035;-77
2023/01/28 13:08:33;;;;;;;10.88;4.55;;;5.60;72.30;;;;;;5079189;28;20021;-77
2023/01/28 13:11:01;;;;;;;9.98;4.38;;;5.70;72.50;;;;;;5096887;28;20067;-77
2023/01/28 13:13:43;;;;;;;10.18;4.82;;;5.80;72.70;;;;;;5096842;28;20016;-77
2023/01/28 13:16:11;;;;;;;10.02;4.65;;;5.80;71.90;;;;;;5079135;28;20028;-77
2023/01/28 13:18:39;;;;;;;11.38;5.03;;;5.90;72.00;;;;;;5096811;28;20051;-77
2023/01/28 13:21:10;;;;;;;11.27;5.32;;;6.10;72.00;;;;;;5096670;28;20035;-77
2023/01/28 13:23:40;;;;;;;9.82;4.90;;;6.30;70.80;;;;;;5096876;28;20042;-77
2023/01/28 13:26:17;;;;;;;9.38;4.57;;;6.70;70.80;;;;;;5096627;28;20016;-77
2023/01/28 13:28:42;;;;;;;11.32;5.03;;;7.20;70.10;;;;;;5096638;28;20028;-77
2023/01/28 13:31:16;;;;;;;9.57;4.57;;;7.40;69.70;;;;;;5096505;28;20024;-77
2023/01/28 13:33:46;;;;;;;9.88;4.75;;;7.50;68.30;;;;;;5096531;28;20037;-77
2023/01/28 13:36:28;;;;;;;8.98;4.55;;;7.70;67.40;;;;;;5096526;28;20025;-77
2023/01/28 13:39:14;;;;;;;10.55;4.85;;;7.60;65.50;;;;;;5096506;28;20041;-77
2023/01/28 13:41:50;;;;;;;10.15;4.95;;;7.70;66.00;;;;;;5096406;28;20144;-77
2023/01/28 13:44:26;;;;;;;10.57;5.35;;;7.80;65.90;;;;;;5078596;28;20122;-78
2023/01/28 13:46:56;;;;;;;9.43;4.80;;;7.70;66.00;;;;;;5096211;28;20025;-77
2023/01/28 13:49:39;;;;;;;11.60;4.68;;;7.60;65.30;;;;;;5096159;28;20084;-77